TimeEST,TemperatureF,Dew PointF,Humidity,Sea Level PressureIn,VisibilityMPH,Wind Direction,Wind SpeedMPH,Gust SpeedMPH,PrecipitationIn,Events,Conditions,WindDirDegrees,DateUTC
12:53 AM,55.9,50.0,80,30.10,10.0,Calm,Calm,-,N/A,,Clear,0,2014-02-20 05:53:00
1:53 AM,57.9,50.0,75,30.10,10.0,Calm,Calm,-,N/A,,Clear,0,2014-02-20 06:53:00
2:53 AM,57.9,48.9,72,30.10,10.0,South,3.5,-,N/A,,Clear,180,2014-02-20 07:53:00
3:53 AM,55.0,48.9,80,30.11,10.0,Calm,Calm,-,N/A,,Clear,0,2014-02-20 08:53:00
4:53 AM,53.1,48.9,86,30.12,10.0,SE,3.5,-,N/A,,Clear,130,2014-02-20 09:53:00
5:53 AM,55.0,50.0,83,30.13,10.0,Calm,Calm,-,N/A,,Clear,0,2014-02-20 10:53:00
6:53 AM,52.0,48.9,89,30.14,10.0,Calm,Calm,-,N/A,,Clear,0,2014-02-20 11:53:00
7:53 AM,53.1,50.0,89,30.15,7.0,Calm,Calm,-,N/A,,Clear,0,2014-02-20 12:53:00
8:53 AM,60.1,55.0,83,30.16,9.0,SSW,5.8,-,N/A,,Clear,200,2014-02-20 13:53:00
9:53 AM,66.0,55.0,68,30.16,10.0,SSW,3.5,-,N/A,,Clear,210,2014-02-20 14:53:00
10:53 AM,73.0,54.0,51,30.14,10.0,SSW,12.7,-,N/A,,Clear,210,2014-02-20 15:53:00
11:53 AM,75.9,55.9,50,30.13,10.0,South,16.1,-,N/A,,Clear,180,2014-02-20 16:53:00
12:53 PM,79.0,55.0,44,30.10,10.0,SSW,13.8,24.2,N/A,,Clear,210,2014-02-20 17:53:00
1:53 PM,82.0,53.1,37,30.07,10.0,SW,16.1,23.0,N/A,,Clear,230,2014-02-20 18:53:00
2:53 PM,82.0,50.0,33,30.05,10.0,SW,15.0,-,N/A,,Clear,230,2014-02-20 19:53:00
3:53 PM,82.0,52.0,35,30.04,10.0,South,11.5,-,N/A,,Clear,190,2014-02-20 20:53:00
4:53 PM,80.1,54.0,40,30.04,10.0,South,9.2,-,N/A,,Clear,170,2014-02-20 21:53:00
5:53 PM,75.0,55.0,50,30.05,10.0,SSE,11.5,-,N/A,,Clear,150,2014-02-20 22:53:00
6:53 PM,72.0,55.9,57,30.06,10.0,SSE,8.1,-,N/A,,Clear,160,2014-02-20 23:53:00
7:53 PM,70.0,60.1,71,30.06,10.0,South,12.7,21.9,N/A,,Clear,180,2014-02-21 00:53:00
8:53 PM,69.1,61.0,75,30.06,10.0,South,13.8,20.7,N/A,,Scattered Clouds,190,2014-02-21 01:53:00
9:08 PM,69.1,61.0,75,30.06,10.0,South,12.7,19.6,N/A,,Mostly Cloudy,190,2014-02-21 02:08:00
9:23 PM,68.0,61.0,78,30.06,10.0,South,10.4,16.1,N/A,,Scattered Clouds,190,2014-02-21 02:23:00
9:53 PM,66.9,61.0,81,30.05,10.0,South,6.9,-,N/A,,Partly Cloudy,170,2014-02-21 02:53:00
10:53 PM,66.0,61.0,84,30.05,10.0,South,6.9,-,N/A,,Clear,180,2014-02-21 03:53:00
11:16 PM,64.9,61.0,87,30.05,10.0,South,8.1,-,N/A,,Mostly Cloudy,180,2014-02-21 04:16:00
11:53 PM,64.9,61.0,87,30.02,10.0,South,11.5,-,N/A,,Overcast,180,2014-02-21 04:53:00